LFSB 221130Z 18005KT 120V230 CAVOK 11/M02 Q1031 NOSIG

ElémentsDécodage
LFSB Station météo située sur l'aérodrome de BALE Mulhouse
221130Z émis le 22 du mois à 11h30 UTC
18005KT vent du 180°, 05 noeuds
120V230 vent de direction variable entre 120° et 230°
CAVOK Ceiling And Visibility OK
- Visibilité de 10 Km ou plus
- Pas de nuage au-dessous de 1500m ou au-dessous de l'altitude minimale du secteur la plus élevée (si>1500m) et absence de CB
- pas de temps présent significatif
11/M02 température 11°C, point de rosée -02°C
 soit une humidité relative de 40%
Q1031 la pression au niveau de la mer (QNH) est de 1031 hPa
NOSIG Pas de changement significatif prévu au cours des deux heures suivant l'heure de l'observation